Time;durP1;ratioP1;P1;durP2;ratioP2;P2;SDS_P1;SDS_P2;PMS_P1;PMS_P2;Temp;Humidity;BMP_temperature;BMP_pressure;BME280_temperature;BME280_humidity;BME280_pressure;Samples;Min_cycle;Max_cycle;Signal;HPM_P1;HPM_P2
2022/06/24 00:02:18;;;;;;;69.95;54.00;;;26.20;56.20;;;;;;4960493;28;95242;-59
2022/06/24 00:04:50;;;;;;;69.20;53.80;;;26.20;56.30;;;;;;4954178;28;90876;-58
2022/06/24 00:07:16;;;;;;;69.60;53.72;;;26.10;56.30;;;;;;4965729;28;90171;-57
2022/06/24 00:09:43;;;;;;;71.00;53.83;;;26.10;56.10;;;;;;4957882;28;91225;-59
2022/06/24 00:12:15;;;;;;;69.72;53.83;;;26.10;56.20;;;;;;4969729;28;90487;-58
2022/06/24 00:14:42;;;;;;;69.38;53.55;;;26.10;56.20;;;;;;4965630;28;89738;-58
2022/06/24 00:17:10;;;;;;;69.22;53.90;;;26.10;56.30;;;;;;4962877;28;91562;-59
2022/06/24 00:20:01;;;;;;;69.22;53.72;;;26.10;56.20;;;;;;4965684;28;90589;-56
2022/06/24 00:22:29;;;;;;;68.95;53.63;;;26.10;56.20;;;;;;4968052;28;91669;-58
2022/06/24 00:25:19;;;;;;;69.40;53.45;;;26.10;56.10;;;;;;4928215;28;90829;-58
2022/06/24 00:28:07;;;;;;;68.50;53.42;;;26.10;56.20;;;;;;4970626;28;89648;-57
2022/06/24 00:30:40;;;;;;;69.05;53.90;;;26.10;56.20;;;;;;4958630;28;96381;-59
2022/06/24 00:33:13;;;;;;;68.68;53.65;;;26.10;56.30;;;;;;4965083;28;93707;-58
2022/06/24 00:35:43;;;;;;;68.65;53.55;;;26.10;56.20;;;;;;4961350;28;90005;-59
2022/06/24 00:38:24;;;;;;;68.53;53.78;;;26.10;56.30;;;;;;4971431;28;89137;-59
2022/06/24 00:40:56;;;;;;;68.95;53.67;;;26.10;56.20;;;;;;4967070;28;90212;-58
2022/06/24 00:43:36;;;;;;;68.82;53.50;;;26.00;56.30;;;;;;4966475;28;89794;-58
2022/06/24 00:46:17;;;;;;;70.88;54.08;;;26.10;56.40;;;;;;4962974;28;91571;-58
2022/06/24 00:48:51;;;;;;;69.28;53.63;;;26.00;56.50;;;;;;4972424;28;90121;-58
2022/06/24 00:51:18;;;;;;;68.60;53.75;;;26.00;56.60;;;;;;4965411;28;90359;-58
2022/06/24 00:53:48;;;;;;;69.13;53.75;;;26.00;56.60;;;;;;4964023;28;90508;-57
2022/06/24 00:56:16;;;;;;;68.50;53.70;;;26.00;56.70;;;;;;4962698;28;89795;-58
2022/06/24 00:59:04;;;;;;;71.07;53.75;;;25.90;56.90;;;;;;4970997;28;90100;-55
2022/06/24 01:01:33;;;;;;;67.78;53.45;;;25.90;57.10;;;;;;4954407;28;89654;-57
2022/06/24 01:04:00;;;;;;;69.53;53.95;;;25.80;57.20;;;;;;4965657;28;88890;-56
2022/06/24 01:06:27;;;;;;;69.30;53.70;;;25.80;57.20;;;;;;4957488;28;91221;-58
2022/06/24 01:08:53;;;;;;;68.75;53.47;;;25.80;57.10;;;;;;4969113;28;89730;-58
2022/06/24 01:11:27;;;;;;;69.53;53.53;;;25.80;57.80;;;;;;4956956;28;91919;-58
2022/06/24 01:13:54;;;;;;;68.35;53.88;;;25.80;57.10;;;;;;4968090;28;90904;-56
2022/06/24 01:16:22;;;;;;;68.53;53.70;;;25.80;57.20;;;;;;4965926;28;91626;-58
2022/06/24 01:19:02;;;;;;;69.05;53.63;;;25.80;57.30;;;;;;4964837;28;90957;-57
2022/06/24 01:21:44;;;;;;;69.80;53.70;;;25.70;57.20;;;;;;4962133;28;96122;-56
2022/06/24 01:24:11;;;;;;;68.35;53.67;;;25.70;57.40;;;;;;4967200;28;89808;-53
2022/06/24 01:26:41;;;;;;;69.22;54.13;;;25.70;57.40;;;;;;4959701;28;92318;-56
2022/06/24 01:29:07;;;;;;;69.40;53.83;;;25.70;57.40;;;;;;4970785;28;88818;-59
2022/06/24 01:31:33;;;;;;;69.82;53.65;;;25.70;57.40;;;;;;4957062;28;92090;-57
2022/06/24 01:33:59;;;;;;;68.82;53.40;;;25.70;57.30;;;;;;4969272;28;89819;-54
2022/06/24 01:36:25;;;;;;;68.57;53.72;;;25.70;57.40;;;;;;4971144;28;91023;-57
2022/06/24 01:38:51;;;;;;;69.38;53.75;;;25.70;57.40;;;;;;4972156;28;91185;-58
2022/06/24 01:41:17;;;;;;;69.88;53.88;;;25.70;57.40;;;;;;4966021;28;91384;-58
2022/06/24 01:43:43;;;;;;;68.38;53.40;;;25.70;57.60;;;;;;4967097;28;89875;-57
2022/06/24 01:46:11;;;;;;;68.63;53.42;;;25.70;57.50;;;;;;4963415;28;91294;-58
2022/06/24 01:48:37;;;;;;;69.80;53.50;;;25.70;57.40;;;;;;4971083;28;89288;-56
2022/06/24 01:51:03;;;;;;;68.50;53.58;;;25.70;57.40;;;;;;4971644;28;92139;-57
2022/06/24 01:53:29;;;;;;;69.45;53.90;;;25.70;57.30;;;;;;4964088;28;90421;-57
2022/06/24 01:55:55;;;;;;;68.03;53.63;;;25.80;57.30;;;;;;4960289;28;90705;-58
2022/06/24 01:58:20;;;;;;;67.93;53.40;;;25.70;57.40;;;;;;4970089;28;96182;-58
2022/06/24 02:00:46;;;;;;;68.50;53.45;;;25.70;57.40;;;;;;4967266;28;92698;-58
2022/06/24 02:03:12;;;;;;;70.90;53.85;;;25.70;57.40;;;;;;4947297;28;95783;-58
2022/06/24 02:05:38;;;;;;;68.50;53.80;;;25.70;57.40;;;;;;4971953;28;90565;-59
2022/06/24 02:08:04;;;;;;;67.85;53.33;;;25.70;57.30;;;;;;4967497;28;92840;-58
2022/06/24 02:13:29;;;;;;;68.00;53.53;;;25.70;57.20;;;;;;4966893;28;91966;-57
2022/06/24 02:16:03;;;;;;;67.72;53.20;;;25.70;57.30;;;;;;4973456;28;90857;-57
2022/06/24 02:18:29;;;;;;;69.28;53.35;;;25.70;57.40;;;;;;4963702;28;89389;-58
2022/06/24 02:20:55;;;;;;;68.38;53.70;;;25.70;57.50;;;;;;4967468;28;90037;-58
2022/06/24 02:23:21;;;;;;;69.75;53.63;;;25.70;57.50;;;;;;4967478;28;89477;-58
2022/06/24 02:25:48;;;;;;;69.38;54.00;;;25.70;57.40;;;;;;4965921;28;90485;-57
2022/06/24 02:28:15;;;;;;;70.10;54.17;;;25.70;57.50;;;;;;4960409;28;91542;-57
2022/06/24 02:30:43;;;;;;;69.57;53.78;;;25.70;57.40;;;;;;4965862;28;90052;-58
2022/06/24 02:33:09;;;;;;;68.38;53.80;;;25.70;57.40;;;;;;4961576;28;90443;-58
2022/06/24 02:35:35;;;;;;;69.25;53.67;;;25.60;57.50;;;;;;4968325;28;89477;-59
2022/06/24 02:38:01;;;;;;;68.32;53.40;;;25.60;57.60;;;;;;4967550;28;89725;-57
2022/06/24 02:40:45;;;;;;;68.95;53.38;;;25.60;57.50;;;;;;4964447;28;90305;-58
2022/06/24 02:43:33;;;;;;;68.38;53.45;;;25.60;57.60;;;;;;4958542;28;96003;-57
2022/06/24 02:46:01;;;;;;;67.72;53.25;;;25.60;57.60;;;;;;4969723;28;90341;-59
2022/06/24 02:48:28;;;;;;;68.82;53.42;;;25.60;57.60;;;;;;4963046;28;93222;-59
2022/06/24 02:50:58;;;;;;;67.95;53.20;;;25.60;57.70;;;;;;4965013;28;91492;-55
2022/06/24 02:53:25;;;;;;;68.97;53.77;;;25.60;57.60;;;;;;4961864;28;90721;-58
2022/06/24 02:55:53;;;;;;;68.25;53.47;;;25.60;57.70;;;;;;4969480;28;91693;-57
2022/06/24 02:58:19;;;;;;;67.85;53.25;;;25.60;57.70;;;;;;4965623;28;90305;-58
2022/06/24 03:00:46;;;;;;;68.28;53.22;;;25.60;57.70;;;;;;4966160;28;92284;-57
2022/06/24 03:03:13;;;;;;;67.80;53.10;;;25.60;57.70;;;;;;4963092;28;90953;-56
2022/06/24 03:05:40;;;;;;;68.13;53.38;;;25.60;57.80;;;;;;4968369;28;90472;-58
2022/06/24 03:08:07;;;;;;;68.70;53.20;;;25.50;57.80;;;;;;4967908;28;88849;-57
2022/06/24 03:10:33;;;;;;;69.40;53.25;;;25.60;57.80;;;;;;4970863;28;91167;-59
2022/06/24 03:12:59;;;;;;;67.13;53.13;;;25.60;57.70;;;;;;4961069;28;91248;-59
2022/06/24 03:15:25;;;;;;;67.85;53.45;;;25.60;57.80;;;;;;4961089;28;91872;-58
2022/06/24 03:17:50;;;;;;;67.57;53.08;;;25.60;57.90;;;;;;4967697;28;90409;-58
2022/06/24 03:20:16;;;;;;;68.32;53.05;;;25.60;57.80;;;;;;4966451;28;90391;-57
2022/06/24 03:22:42;;;;;;;68.18;53.28;;;25.50;57.90;;;;;;4960454;28;90747;-58
2022/06/24 03:25:09;;;;;;;68.30;53.22;;;25.50;57.80;;;;;;4963900;28;92082;-60
2022/06/24 03:27:37;;;;;;;68.03;53.05;;;25.50;57.80;;;;;;4962884;28;89849;-57
2022/06/24 03:30:07;;;;;;;67.63;53.35;;;25.50;57.80;;;;;;4964217;28;90531;-58
2022/06/24 03:32:33;;;;;;;68.45;53.83;;;25.50;57.70;;;;;;4958884;28;90413;-59
2022/06/24 03:34:59;;;;;;;68.45;53.47;;;25.50;57.80;;;;;;4965178;28;93587;-58
2022/06/24 03:37:26;;;;;;;67.95;53.47;;;25.40;57.80;;;;;;4965710;28;92622;-58
2022/06/24 03:39:51;;;;;;;68.72;53.35;;;25.40;57.80;;;;;;4967034;28;91485;-57
2022/06/24 03:42:17;;;;;;;68.47;53.35;;;25.40;57.90;;;;;;4961564;28;90964;-58
2022/06/24 03:44:43;;;;;;;67.30;53.35;;;25.50;57.90;;;;;;4968167;28;90205;-58
2022/06/24 03:47:08;;;;;;;68.57;53.35;;;25.50;57.80;;;;;;4967462;28;89928;-59
2022/06/24 03:49:34;;;;;;;67.38;53.08;;;25.40;57.80;;;;;;4959407;28;90618;-57
2022/06/24 03:51:59;;;;;;;68.57;53.45;;;25.40;57.90;;;;;;4971750;28;90423;-56
2022/06/24 03:54:25;;;;;;;68.47;53.22;;;25.40;57.90;;;;;;4966419;28;90138;-57
2022/06/24 03:56:51;;;;;;;68.25;53.22;;;25.40;57.90;;;;;;4968412;28;89948;-55
2022/06/24 03:59:17;;;;;;;67.43;53.00;;;25.40;57.90;;;;;;4959163;28;90215;-58
2022/06/24 04:01:43;;;;;;;68.18;53.15;;;25.40;58.00;;;;;;4964140;28;91122;-59
2022/06/24 04:04:09;;;;;;;66.78;53.00;;;25.40;58.00;;;;;;4962885;28;90754;-59
2022/06/24 04:06:35;;;;;;;68.50;53.20;;;25.40;58.20;;;;;;4968384;28;91337;-58
2022/06/24 04:09:00;;;;;;;67.72;53.13;;;25.40;58.00;;;;;;4969638;28;90125;-56
2022/06/24 04:11:26;;;;;;;67.65;53.40;;;25.40;58.00;;;;;;4956486;28;91347;-59
2022/06/24 04:13:52;;;;;;;68.75;53.50;;;25.40;58.00;;;;;;4969307;28;89894;-58
2022/06/24 04:16:17;;;;;;;66.95;52.88;;;25.40;57.90;;;;;;4967071;28;90588;-57
2022/06/24 04:18:43;;;;;;;67.85;53.08;;;25.40;58.00;;;;;;4954076;28;91138;-57
2022/06/24 04:21:13;;;;;;;67.15;53.00;;;25.40;58.00;;;;;;4965590;28;89382;-59
2022/06/24 04:23:39;;;;;;;67.88;53.40;;;25.40;57.90;;;;;;4960797;28;90053;-54
2022/06/24 04:26:06;;;;;;;69.18;53.40;;;25.40;58.10;;;;;;4969497;28;97378;-58
2022/06/24 04:28:31;;;;;;;67.35;53.15;;;25.40;58.10;;;;;;4960723;28;91468;-58
2022/06/24 04:30:57;;;;;;;68.00;53.17;;;25.40;58.20;;;;;;4965596;28;90878;-59
2022/06/24 04:33:22;;;;;;;67.57;53.03;;;25.40;58.20;;;;;;4961890;28;93487;-58
2022/06/24 04:35:48;;;;;;;67.95;53.00;;;25.40;57.90;;;;;;4970887;28;95992;-58
2022/06/24 04:38:14;;;;;;;67.63;53.05;;;25.40;58.10;;;;;;4975518;28;92372;-59
2022/06/24 04:40:40;;;;;;;68.50;53.45;;;25.40;58.00;;;;;;4965587;28;91062;-58
2022/06/24 04:43:07;;;;;;;68.07;53.63;;;25.40;58.00;;;;;;4957418;28;89836;-56
2022/06/24 04:45:33;;;;;;;69.28;53.15;;;25.40;57.80;;;;;;4962429;28;89684;-56
2022/06/24 04:47:59;;;;;;;68.40;53.17;;;25.30;58.00;;;;;;4963334;28;90136;-58
2022/06/24 04:50:25;;;;;;;67.70;53.10;;;25.40;58.20;;;;;;4965466;28;90706;-58
2022/06/24 04:52:51;;;;;;;67.05;52.78;;;25.40;58.20;;;;;;4973363;28;90804;-58
2022/06/24 04:55:17;;;;;;;66.93;53.05;;;25.40;58.20;;;;;;4965965;28;89573;-57
2022/06/24 04:57:43;;;;;;;66.65;52.75;;;25.40;58.20;;;;;;4961487;28;90449;-58
2022/06/24 05:00:10;;;;;;;67.38;52.85;;;25.40;58.30;;;;;;4965604;28;91741;-58
2022/06/24 05:02:36;;;;;;;67.65;52.80;;;25.40;58.20;;;;;;4960626;28;101846;-59
2022/06/24 05:05:02;;;;;;;67.10;52.75;;;25.40;58.20;;;;;;4966072;28;92711;-58
2022/06/24 05:07:28;;;;;;;66.20;52.45;;;25.40;58.20;;;;;;4968829;28;96378;-58
2022/06/24 05:09:54;;;;;;;66.90;52.50;;;25.40;58.30;;;;;;4957954;28;89940;-59
2022/06/24 05:12:19;;;;;;;67.30;52.78;;;25.40;58.30;;;;;;4969591;28;90058;-59
2022/06/24 05:14:45;;;;;;;66.90;52.35;;;25.40;58.30;;;;;;4967591;28;91225;-58
2022/06/24 05:17:12;;;;;;;67.43;52.72;;;25.40;58.50;;;;;;4973021;28;91495;-57
2022/06/24 05:19:37;;;;;;;67.07;52.78;;;25.40;58.50;;;;;;4969007;28;91288;-59
2022/06/24 05:22:03;;;;;;;67.25;52.70;;;25.40;58.30;;;;;;4975310;28;91524;-58
2022/06/24 05:24:29;;;;;;;66.47;52.30;;;25.40;58.20;;;;;;4970498;28;90169;-60
2022/06/24 05:26:54;;;;;;;66.75;52.95;;;25.40;58.20;;;;;;4965948;28;90481;-58
2022/06/24 05:29:20;;;;;;;67.78;52.55;;;25.40;58.40;;;;;;4968139;28;90012;-58
2022/06/24 05:31:46;;;;;;;67.00;52.55;;;25.40;58.30;;;;;;4963711;28;92497;-58
2022/06/24 05:34:12;;;;;;;67.13;52.53;;;25.40;58.30;;;;;;4959282;28;91521;-59
2022/06/24 05:36:38;;;;;;;67.07;52.63;;;25.40;58.30;;;;;;4966925;28;90140;-59
2022/06/24 05:39:05;;;;;;;67.72;52.35;;;25.40;58.40;;;;;;4963498;28;94698;-59
2022/06/24 05:41:32;;;;;;;68.80;52.80;;;25.50;58.40;;;;;;4968349;28;91414;-58
2022/06/24 05:43:58;;;;;;;66.88;52.78;;;25.50;58.30;;;;;;4964894;28;89518;-59
2022/06/24 05:46:23;;;;;;;69.20;52.40;;;25.50;58.40;;;;;;4967530;28;95297;-58
2022/06/24 05:48:49;;;;;;;67.07;52.47;;;25.50;58.50;;;;;;4966809;28;90306;-58
2022/06/24 05:51:16;;;;;;;66.57;52.58;;;25.50;58.50;;;;;;4966187;28;89983;-59
2022/06/24 05:56:28;;;;;;;68.18;52.60;;;25.50;58.50;;;;;;4964941;28;94192;-58
2022/06/24 05:58:54;;;;;;;67.00;52.75;;;25.40;58.50;;;;;;4973200;28;89016;-59
2022/06/24 06:01:21;;;;;;;66.88;52.70;;;25.40;58.50;;;;;;4959923;28;99091;-58
2022/06/24 06:03:47;;;;;;;66.53;52.45;;;25.40;58.50;;;;;;4956717;28;92163;-58
2022/06/24 06:06:13;;;;;;;66.78;52.75;;;25.50;58.50;;;;;;4969719;28;91389;-59
2022/06/24 06:08:39;;;;;;;66.45;52.58;;;25.50;58.40;;;;;;4974007;28;89867;-59
2022/06/24 06:11:17;;;;;;;66.38;52.35;;;25.50;58.30;;;;;;4964625;28;93503;-59
2022/06/24 06:13:45;;;;;;;66.20;52.53;;;25.50;58.20;;;;;;4962327;28;93357;-61
2022/06/24 06:16:11;;;;;;;66.13;52.45;;;25.40;58.30;;;;;;4963990;28;89991;-51
2022/06/24 06:18:37;;;;;;;71.28;53.35;;;25.40;58.90;;;;;;4961873;28;90560;-67
2022/06/24 06:21:05;;;;;;;74.10;53.60;;;25.00;63.10;;;;;;4960133;28;90707;-67
2022/06/24 06:23:30;;;;;;;73.88;53.95;;;24.80;64.40;;;;;;4971371;28;89150;-67
2022/06/24 06:25:57;;;;;;;68.38;53.35;;;24.60;66.50;;;;;;4961463;28;96608;-67
2022/06/24 06:28:23;;;;;;;71.05;54.35;;;24.50;66.70;;;;;;4962117;28;89619;-69
2022/06/24 06:30:50;;;;;;;73.80;55.10;;;24.30;68.50;;;;;;4962025;28;91999;-69
2022/06/24 06:33:15;;;;;;;69.68;54.08;;;24.30;69.00;;;;;;4954560;28;91099;-67
2022/06/24 06:35:41;;;;;;;71.30;54.53;;;24.30;68.40;;;;;;4967927;28;91178;-67
2022/06/24 06:38:07;;;;;;;73.80;54.40;;;24.20;68.70;;;;;;4971605;28;90102;-67
2022/06/24 06:40:37;;;;;;;67.38;52.22;;;24.30;68.40;;;;;;4968051;28;89991;-66
2022/06/24 06:43:05;;;;;;;66.07;51.53;;;23.80;66.70;;;;;;4964671;28;91176;-64
2022/06/24 06:45:36;;;;;;;68.57;51.53;;;23.60;65.50;;;;;;4961232;28;91238;-64
2022/06/24 06:48:02;;;;;;;66.57;51.70;;;23.20;66.10;;;;;;4958897;28;89044;-67
2022/06/24 06:50:27;;;;;;;74.68;53.13;;;23.00;67.20;;;;;;4967641;28;89607;-65
2022/06/24 06:52:53;;;;;;;75.60;53.05;;;23.10;69.00;;;;;;4967049;28;89745;-65
2022/06/24 06:55:19;;;;;;;71.45;52.97;;;23.00;68.40;;;;;;4969556;28;90956;-64
2022/06/24 06:57:46;;;;;;;71.93;52.80;;;23.00;69.10;;;;;;4969900;28;95556;-65
2022/06/24 07:00:13;;;;;;;75.18;53.17;;;22.80;69.20;;;;;;4962719;28;90845;-64
2022/06/24 07:02:39;;;;;;;73.40;53.20;;;22.90;70.60;;;;;;4965389;28;90940;-65
2022/06/24 07:05:06;;;;;;;68.57;53.22;;;23.00;69.20;;;;;;4963548;28;91638;-64
2022/06/24 07:07:32;;;;;;;69.03;53.55;;;22.50;69.50;;;;;;4961150;28;90853;-64
2022/06/24 07:09:58;;;;;;;68.13;52.88;;;22.00;70.90;;;;;;4969479;28;89696;-65
2022/06/24 07:12:25;;;;;;;72.22;53.70;;;21.60;71.50;;;;;;4973624;28;89236;-64
2022/06/24 07:14:50;;;;;;;68.47;53.33;;;21.40;72.10;;;;;;4971030;28;90327;-65
2022/06/24 07:17:17;;;;;;;70.18;53.55;;;21.30;73.90;;;;;;4975383;28;81034;-64
2022/06/24 07:19:44;;;;;;;70.22;52.85;;;21.20;74.60;;;;;;4979317;28;90954;-65
2022/06/24 07:22:09;;;;;;;65.78;52.13;;;21.50;73.50;;;;;;4965732;28;90060;-65
2022/06/24 07:24:36;;;;;;;68.13;51.92;;;21.80;70.70;;;;;;4968316;28;92116;-65
2022/06/24 07:27:04;;;;;;;66.60;51.65;;;21.40;71.60;;;;;;4959169;28;95186;-64
2022/06/24 07:29:33;;;;;;;68.90;51.55;;;21.50;71.80;;;;;;4978981;28;89620;-65
2022/06/24 07:31:59;;;;;;;66.20;51.47;;;21.60;71.80;;;;;;4978464;28;77616;-65
2022/06/24 07:34:30;;;;;;;66.43;51.17;;;21.30;72.80;;;;;;4962588;28;80266;-65
2022/06/24 07:37:00;;;;;;;67.15;50.83;;;21.00;73.10;;;;;;4983998;28;83857;-65
2022/06/24 07:39:26;;;;;;;64.50;50.63;;;20.50;74.60;;;;;;4985503;28;79118;-65
2022/06/24 07:41:53;;;;;;;67.75;50.88;;;20.80;75.10;;;;;;4972978;28;89178;-65
2022/06/24 07:44:19;;;;;;;65.90;50.75;;;20.80;75.60;;;;;;4986746;28;87296;-64
2022/06/24 07:46:45;;;;;;;63.38;50.33;;;20.90;75.00;;;;;;4974990;28;88524;-65
2022/06/24 07:49:11;;;;;;;65.40;50.60;;;20.60;74.50;;;;;;4974186;28;84756;-63
2022/06/24 07:51:37;;;;;;;63.25;50.35;;;20.30;76.40;;;;;;4970225;28;84531;-63
2022/06/24 07:54:05;;;;;;;63.88;50.33;;;20.40;77.00;;;;;;4973469;28;85791;-63
2022/06/24 07:59:16;;;;;;;64.55;50.47;;;20.20;78.50;;;;;;4962952;28;91363;-63
2022/06/24 08:01:41;;;;;;;62.33;50.03;;;20.30;78.70;;;;;;4971042;28;88623;-63
2022/06/24 08:04:10;;;;;;;65.55;50.17;;;20.10;78.90;;;;;;4967260;28;86707;-63
2022/06/24 08:06:42;;;;;;;65.70;50.05;;;20.00;80.80;;;;;;4972663;28;86204;-63
2022/06/24 08:09:08;;;;;;;65.60;50.15;;;20.40;79.90;;;;;;4973863;28;91621;-63
2022/06/24 08:11:34;;;;;;;67.68;50.28;;;20.70;78.80;;;;;;4956135;28;90390;-63
2022/06/24 08:14:00;;;;;;;66.10;50.88;;;20.70;78.80;;;;;;4959993;28;90459;-63
2022/06/24 08:16:26;;;;;;;66.40;51.05;;;20.90;78.30;;;;;;4962310;28;92421;-64
2022/06/24 08:18:52;;;;;;;66.03;51.25;;;21.10;77.40;;;;;;4943455;28;90833;-64
2022/06/24 08:21:18;;;;;;;66.15;51.55;;;20.90;77.20;;;;;;4966036;28;91291;-64
2022/06/24 08:23:44;;;;;;;65.35;51.60;;;20.90;77.70;;;;;;4961049;28;90577;-64
2022/06/24 08:26:10;;;;;;;64.82;51.47;;;21.10;78.10;;;;;;4969791;28;88864;-64
2022/06/24 08:28:36;;;;;;;69.68;51.33;;;21.20;77.20;;;;;;4954950;28;91075;-64
2022/06/24 08:31:01;;;;;;;66.85;51.55;;;21.40;76.80;;;;;;4965974;28;89946;-64
2022/06/24 08:33:28;;;;;;;69.28;51.63;;;21.50;76.10;;;;;;4950540;28;91781;-64
2022/06/24 08:35:53;;;;;;;64.43;51.28;;;21.60;75.70;;;;;;4959245;28;91897;-64
2022/06/24 08:38:20;;;;;;;63.53;51.10;;;21.30;75.20;;;;;;4956816;28;91786;-64
2022/06/24 08:40:50;;;;;;;65.28;51.15;;;21.30;76.60;;;;;;4958756;28;96677;-64
2022/06/24 08:43:17;;;;;;;65.93;50.93;;;21.20;77.80;;;;;;4957421;28;90092;-64
2022/06/24 08:45:43;;;;;;;65.53;51.42;;;21.50;76.30;;;;;;4956854;28;91205;-64
2022/06/24 08:48:10;;;;;;;66.60;51.63;;;21.70;76.60;;;;;;4955685;28;90652;-64
2022/06/24 08:50:36;;;;;;;70.13;51.65;;;22.00;76.10;;;;;;4957662;28;89774;-64
2022/06/24 08:53:08;;;;;;;65.88;51.38;;;22.20;75.40;;;;;;4961657;28;95195;-64
2022/06/24 08:55:38;;;;;;;65.78;51.70;;;22.40;75.00;;;;;;4961401;28;91153;-64
2022/06/24 08:58:14;;;;;;;69.33;51.63;;;22.20;73.10;;;;;;4964212;28;98231;-64
2022/06/24 09:00:40;;;;;;;68.13;51.40;;;22.30;74.00;;;;;;4968188;28;90169;-64
2022/06/24 09:03:06;;;;;;;66.32;51.63;;;22.40;74.30;;;;;;4952456;28;93765;-57
2022/06/24 09:05:32;;;;;;;67.93;51.63;;;22.50;73.90;;;;;;4961962;28;92044;-65
2022/06/24 09:08:06;;;;;;;70.97;51.92;;;22.60;75.40;;;;;;4970647;28;92386;-64
2022/06/24 09:10:33;;;;;;;67.97;52.28;;;22.90;74.60;;;;;;4965320;28;90636;-65
2022/06/24 09:12:59;;;;;;;65.65;51.58;;;22.80;76.10;;;;;;4968106;28;90195;-58
2022/06/24 09:15:26;;;;;;;67.03;51.60;;;22.60;73.10;;;;;;4972608;28;89660;-58
2022/06/24 09:17:52;;;;;;;71.55;51.42;;;22.90;75.90;;;;;;4959870;28;90363;-59
2022/06/24 09:20:22;;;;;;;66.40;51.55;;;23.00;73.30;;;;;;4963536;28;92038;-61
2022/06/24 09:23:00;;;;;;;66.28;51.45;;;22.90;74.30;;;;;;4976457;28;91650;-62
2022/06/24 09:25:26;;;;;;;66.85;51.15;;;23.10;73.90;;;;;;4964129;28;91357;-60
2022/06/24 09:27:51;;;;;;;67.13;51.35;;;22.80;71.80;;;;;;4961903;28;95597;-58
2022/06/24 09:30:17;;;;;;;66.82;51.30;;;22.70;75.50;;;;;;4964326;28;92321;-52
2022/06/24 09:32:53;;;;;;;66.00;51.22;;;22.60;76.60;;;;;;4961446;28;91919;-55
2022/06/24 09:35:23;;;;;;;68.15;50.83;;;22.70;76.80;;;;;;4961807;28;96998;-66
2022/06/24 09:37:51;;;;;;;64.90;50.90;;;22.80;76.10;;;;;;4979879;28;86320;-63
2022/06/24 09:40:23;;;;;;;65.25;50.85;;;22.90;72.10;;;;;;4968847;28;85915;-64
2022/06/24 09:42:55;;;;;;;63.95;50.65;;;23.20;71.30;;;;;;4972281;28;85930;-65
2022/06/24 09:45:21;;;;;;;64.50;50.83;;;23.20;69.90;;;;;;4976288;28;85842;-67
2022/06/24 09:47:49;;;;;;;65.85;51.13;;;23.40;71.60;;;;;;4977592;28;90441;-64
2022/06/24 09:50:15;;;;;;;66.32;50.95;;;23.50;71.20;;;;;;4979655;28;83060;-56
2022/06/24 09:52:42;;;;;;;65.78;50.92;;;23.50;69.20;;;;;;4977723;28;85259;-62
2022/06/24 09:55:09;;;;;;;64.60;50.63;;;23.50;70.00;;;;;;4965483;28;85033;-60
2022/06/24 09:57:35;;;;;;;65.15;50.85;;;23.40;70.80;;;;;;4988096;28;84136;-62
2022/06/24 10:02:49;;;;;;;64.63;50.72;;;23.40;70.70;;;;;;4974421;28;88868;-61
2022/06/24 10:05:18;;;;;;;65.13;50.83;;;23.30;70.70;;;;;;4943632;28;89945;-50
2022/06/24 10:07:46;;;;;;;67.82;50.92;;;23.40;69.80;;;;;;4971496;28;86669;-62
2022/06/24 10:10:14;;;;;;;64.68;50.90;;;23.70;70.40;;;;;;4956323;28;89814;-61
2022/06/24 10:12:46;;;;;;;66.00;50.83;;;23.90;69.80;;;;;;4977452;28;90876;-61
2022/06/24 10:15:14;;;;;;;65.35;50.83;;;24.00;69.60;;;;;;4962819;28;91549;-61
2022/06/24 10:17:42;;;;;;;65.93;50.80;;;24.00;67.10;;;;;;4982914;28;91519;-61
2022/06/24 10:20:13;;;;;;;66.03;50.88;;;24.00;67.10;;;;;;4967020;28;90084;-59
2022/06/24 10:22:46;;;;;;;64.82;50.80;;;24.00;66.90;;;;;;4973191;28;89685;-62
2022/06/24 10:25:41;;;;;;;64.28;50.70;;;24.10;65.50;;;;;;4970057;28;96267;-62
2022/06/24 10:28:06;;;;;;;65.65;50.65;;;24.00;65.60;;;;;;4970043;28;90177;-62
2022/06/24 10:30:56;;;;;;;64.35;50.65;;;24.00;65.60;;;;;;4965365;28;89777;-62
2022/06/24 10:33:25;;;;;;;64.93;50.92;;;24.00;65.40;;;;;;4963102;28;91519;-60
2022/06/24 10:36:04;;;;;;;64.60;50.75;;;24.00;66.80;;;;;;4972854;28;90116;-61
2022/06/24 10:38:35;;;;;;;65.47;50.92;;;23.80;67.30;;;;;;4976890;28;91082;-59
2022/06/24 10:41:03;;;;;;;66.47;50.80;;;23.90;66.70;;;;;;4973674;28;90246;-61
2022/06/24 10:43:36;;;;;;;65.00;50.90;;;23.90;65.50;;;;;;4972966;28;91099;-61
2022/06/24 10:46:11;;;;;;;66.45;50.92;;;24.10;65.70;;;;;;4968444;28;89876;-61
2022/06/24 10:48:58;;;;;;;65.50;50.85;;;24.10;66.80;;;;;;4974304;28;90846;-61
2022/06/24 10:51:28;;;;;;;65.07;50.90;;;23.90;66.90;;;;;;4981716;28;89637;-59
2022/06/24 10:54:02;;;;;;;66.07;50.90;;;24.00;65.30;;;;;;4972990;28;91532;-61
2022/06/24 10:56:43;;;;;;;65.07;51.05;;;24.00;65.70;;;;;;4970934;28;89732;-61
2022/06/24 10:59:10;;;;;;;67.70;51.15;;;24.20;65.30;;;;;;4967270;28;90978;-61
2022/06/24 11:01:39;;;;;;;65.45;51.35;;;24.20;64.60;;;;;;4968678;28;91389;-62
2022/06/24 11:04:07;;;;;;;64.80;51.05;;;24.20;64.20;;;;;;4961406;28;93327;-62
2022/06/24 11:06:33;;;;;;;64.85;50.97;;;24.10;64.90;;;;;;4966785;28;92452;-60
2022/06/24 11:09:09;;;;;;;65.38;51.13;;;24.00;64.80;;;;;;4976795;28;89877;-61
2022/06/24 11:11:35;;;;;;;67.50;51.47;;;24.20;66.70;;;;;;4969839;28;91211;-62
2022/06/24 11:14:25;;;;;;;66.20;51.25;;;24.20;66.30;;;;;;4973969;28;90817;-61
2022/06/24 11:16:51;;;;;;;65.07;51.20;;;24.20;66.90;;;;;;4972901;28;93141;-59
2022/06/24 11:19:17;;;;;;;66.72;51.45;;;24.20;65.60;;;;;;4963978;28;90088;-60
2022/06/24 11:21:48;;;;;;;65.55;51.22;;;24.30;66.20;;;;;;4969899;28;91174;-62
2022/06/24 11:24:19;;;;;;;65.63;51.22;;;24.30;65.10;;;;;;4978049;28;90215;-61
2022/06/24 11:27:05;;;;;;;68.32;51.47;;;24.40;65.00;;;;;;4965525;28;89584;-62
2022/06/24 11:29:56;;;;;;;66.00;51.45;;;24.50;65.00;;;;;;4967576;28;91745;-61
2022/06/24 11:32:23;;;;;;;65.90;51.50;;;24.40;65.00;;;;;;4968744;28;89868;-61
2022/06/24 11:34:49;;;;;;;65.93;51.75;;;24.50;64.50;;;;;;4969137;28;91052;-62
2022/06/24 11:37:23;;;;;;;65.97;51.35;;;24.50;64.60;;;;;;4977263;28;91589;-62
2022/06/24 11:39:53;;;;;;;65.25;51.55;;;24.40;64.40;;;;;;4969615;28;90142;-62
2022/06/24 11:42:20;;;;;;;65.28;51.38;;;24.40;64.50;;;;;;4965306;28;93152;-61
2022/06/24 11:44:45;;;;;;;68.53;51.55;;;24.20;64.70;;;;;;4963532;28;92054;-61
2022/06/24 11:47:11;;;;;;;65.10;51.35;;;24.40;65.70;;;;;;4973227;28;91179;-62
2022/06/24 11:49:42;;;;;;;65.35;51.33;;;24.30;65.60;;;;;;4976341;28;89582;-62
2022/06/24 11:52:08;;;;;;;65.18;51.53;;;24.40;65.20;;;;;;4971281;28;95844;-60
2022/06/24 11:54:34;;;;;;;66.57;51.33;;;24.30;63.90;;;;;;4974554;28;92851;-60
2022/06/24 11:56:59;;;;;;;66.03;51.17;;;24.00;66.10;;;;;;4948969;28;91195;-62
2022/06/24 11:59:29;;;;;;;67.38;51.35;;;24.20;66.90;;;;;;4978696;28;89963;-62
2022/06/24 12:01:55;;;;;;;66.28;51.45;;;24.20;65.90;;;;;;4965551;28;93506;-62
2022/06/24 12:04:23;;;;;;;64.97;51.22;;;24.20;66.90;;;;;;4969186;28;89979;-61
2022/06/24 12:06:50;;;;;;;65.55;51.50;;;24.30;66.80;;;;;;4963286;28;90840;-62
2022/06/24 12:09:16;;;;;;;65.15;51.25;;;24.20;65.60;;;;;;4975506;28;90062;-61
2022/06/24 12:11:44;;;;;;;65.53;51.45;;;24.40;65.80;;;;;;4968986;28;89319;-62
2022/06/24 12:14:11;;;;;;;67.47;51.47;;;24.50;65.30;;;;;;4974566;28;90167;-63
2022/06/24 12:16:58;;;;;;;66.45;51.65;;;24.50;65.70;;;;;;4972106;28;90984;-61
2022/06/24 12:19:29;;;;;;;66.30;51.38;;;24.50;65.00;;;;;;4971431;28;93986;-62
2022/06/24 12:22:09;;;;;;;65.40;51.33;;;24.70;66.30;;;;;;4967680;28;95055;-61
2022/06/24 12:24:36;;;;;;;65.85;51.50;;;24.80;65.30;;;;;;4961109;28;90711;-62
2022/06/24 12:27:04;;;;;;;66.10;51.63;;;24.80;64.10;;;;;;4957894;28;95195;-62
2022/06/24 12:29:35;;;;;;;66.30;51.67;;;25.00;63.70;;;;;;4963649;28;90534;-62
2022/06/24 12:32:03;;;;;;;66.15;51.65;;;25.00;63.70;;;;;;4954325;28;93371;-59
2022/06/24 12:34:35;;;;;;;68.03;51.70;;;25.00;63.40;;;;;;4960497;28;90987;-59
2022/06/24 12:37:05;;;;;;;66.15;51.75;;;25.10;65.20;;;;;;4954689;28;89498;-58
2022/06/24 12:39:37;;;;;;;66.32;51.75;;;25.10;65.40;;;;;;4953595;28;93528;-52
2022/06/24 12:42:05;;;;;;;66.28;51.45;;;25.00;62.80;;;;;;4959776;28;91268;-59
2022/06/24 12:44:47;;;;;;;65.68;51.53;;;25.00;62.90;;;;;;4965810;28;97880;-60